Time;durP1;ratioP1;P1;durP2;ratioP2;P2;SDS_P1;SDS_P2;PMS_P1;PMS_P2;Temp;Humidity;BMP_temperature;BMP_pressure;BME280_temperature;BME280_humidity;BME280_pressure;Samples;Min_cycle;Max_cycle;Signal;HPM_P1;HPM_P2
2024/04/20 00:01:45;;;;;;;6.70;2.93;;;;;;;5.42;100.00;97720.63;5441206;26;20259;-77
2024/04/20 00:04:13;;;;;;;4.77;3.03;;;;;;;5.41;100.00;97722.41;5441391;26;20731;-78
2024/04/20 00:06:41;;;;;;;9.77;2.70;;;;;;;5.22;100.00;97721.72;5441473;26;20309;-78
2024/04/20 00:09:09;;;;;;;4.47;2.83;;;;;;;5.12;100.00;97723.16;5441770;26;20287;-77
2024/04/20 00:11:37;;;;;;;6.80;3.00;;;;;;;5.13;100.00;97718.78;5441078;26;20272;-78
2024/04/20 00:14:05;;;;;;;3.57;2.33;;;;;;;5.09;100.00;97725.94;5441916;26;20769;-78
2024/04/20 00:16:36;;;;;;;5.17;2.53;;;;;;;5.03;100.00;97717.56;5441806;26;20319;-78
2024/04/20 00:19:04;;;;;;;7.17;2.50;;;;;;;5.02;100.00;97732.41;5441628;26;20569;-78
2024/04/20 00:21:33;;;;;;;3.37;2.60;;;;;;;5.02;100.00;97732.41;5441726;26;20303;-77
2024/04/20 00:24:01;;;;;;;7.87;2.60;;;;;;;4.98;100.00;97732.66;5441789;26;20272;-78
2024/04/20 00:26:29;;;;;;;3.43;2.47;;;;;;;4.98;100.00;97723.06;5450699;26;20619;-78
2024/04/20 00:28:57;;;;;;;6.53;2.53;;;;;;;4.91;100.00;97737.41;5450900;26;20361;-78
2024/04/20 00:31:25;;;;;;;5.27;3.00;;;;;;;4.89;100.00;97733.16;5450725;26;20243;-78
2024/04/20 00:33:58;;;;;;;6.23;2.40;;;;;;;4.86;100.00;97725.47;5450862;26;20764;-78
2024/04/20 00:36:26;;;;;;;4.83;1.90;;;;;;;4.82;100.00;97743.09;5450775;26;20268;-78
2024/04/20 00:38:55;;;;;;;4.30;2.10;;;;;;;4.87;100.00;97742.84;5451821;26;20325;-78
2024/04/20 00:41:23;;;;;;;4.37;2.30;;;;;;;4.82;100.00;97737.88;5450169;26;20769;-78
2024/04/20 00:43:52;;;;;;;6.77;2.60;;;;;;;4.75;100.00;97741.75;5450998;26;20282;-78
2024/04/20 00:46:20;;;;;;;5.63;2.23;;;;;;;4.72;100.00;97736.69;5450496;26;20230;-78
2024/04/20 00:48:48;;;;;;;3.13;2.10;;;;;;;4.75;100.00;97741.75;5449831;26;20236;-78
2024/04/20 00:51:20;;;;;;;3.37;1.80;;;;;;;4.80;100.00;97744.97;5449928;26;20369;-78
2024/04/20 00:53:51;;;;;;;6.73;2.30;;;;;;;4.77;100.00;97745.13;5451372;26;20327;-78
2024/04/20 00:56:21;;;;;;;5.03;3.00;;;;;;;4.80;100.00;97752.81;5451362;26;20227;-78
2024/04/20 00:58:49;;;;;;;3.83;1.97;;;;;;;4.75;100.00;97757.44;5450753;26;20231;-78
2024/04/20 01:01:17;;;;;;;4.77;2.00;;;;;;;4.71;100.00;97766.38;5450314;26;20240;-78
2024/04/20 01:03:45;;;;;;;7.20;2.30;;;;;;;4.72;100.00;97751.53;5451260;26;20224;-79
2024/04/20 01:06:14;;;;;;;5.57;2.03;;;;;;;4.73;100.00;97756.69;5448227;26;20762;-78
2024/04/20 01:08:45;;;;;;;3.43;1.77;;;;;;;4.72;100.00;97764.63;5446512;26;20352;-80
2024/04/20 01:11:11;;;;;;;5.13;1.73;;;;;;;4.75;100.00;97752.22;5441141;26;20610;-79
2024/04/20 01:13:39;;;;;;;4.10;1.80;;;;;;;4.61;100.00;97752.09;5441256;26;20320;-78
2024/04/20 01:16:08;;;;;;;6.57;2.10;;;;;;;4.63;100.00;97745.00;5442642;26;20341;-78
2024/04/20 01:18:36;;;;;;;9.07;1.77;;;;;;;4.58;100.00;97754.03;5442485;26;20284;-80
2024/04/20 01:21:04;;;;;;;5.37;1.90;;;;;;;4.49;100.00;97754.47;5441645;26;20293;-79
2024/04/20 01:23:33;;;;;;;5.23;1.93;;;;;;;4.46;100.00;97752.03;5444413;26;20333;-79
2024/04/20 01:26:04;;;;;;;8.43;1.97;;;;;;;4.49;100.00;97750.09;5444002;26;20290;-78
2024/04/20 01:28:32;;;;;;;4.87;1.80;;;;;;;4.43;100.00;97754.78;5450150;26;20687;-78
2024/04/20 01:31:00;;;;;;;7.70;2.27;;;;;;;4.42;100.00;97759.19;5451702;26;20288;-79
2024/04/20 01:33:28;;;;;;;5.57;2.07;;;;;;;4.47;100.00;97765.00;5452815;26;20222;-78
2024/04/20 01:35:58;;;;;;;4.10;2.20;;;;;;;4.49;100.00;97760.56;5448843;26;20234;-78
2024/04/20 01:38:26;;;;;;;3.70;2.07;;;;;;;4.55;100.00;97769.88;5452953;26;20673;-78
2024/04/20 01:40:54;;;;;;;5.70;1.90;;;;;;;4.53;100.00;97772.56;5455260;26;20275;-78
2024/04/20 01:43:25;;;;;;;7.47;2.23;;;;;;;4.56;100.00;97777.66;5456390;26;20354;-78
2024/04/20 01:45:53;;;;;;;11.40;2.30;;;;;;;4.60;100.00;97784.44;5455885;26;20726;-78
2024/04/20 01:48:21;;;;;;;3.40;1.60;;;;;;;4.71;100.00;97781.25;5454789;26;20239;-78
2024/04/20 01:50:50;;;;;;;4.60;1.50;;;;;;;4.65;100.00;97778.94;5455349;26;20280;-78
2024/04/20 01:53:18;;;;;;;3.37;1.73;;;;;;;4.63;100.00;97789.50;5455263;26;20224;-78
2024/04/20 01:55:46;;;;;;;5.43;1.90;;;;;;;4.64;100.00;97791.19;5447072;26;20823;-78
2024/04/20 01:58:14;;;;;;;2.90;1.90;;;;;;;4.67;100.00;97785.81;5447109;26;20276;-78
2024/04/20 02:00:45;;;;;;;6.90;2.37;;;;;;;4.74;100.00;97778.47;5447086;26;20243;-78
2024/04/20 02:03:13;;;;;;;4.17;1.80;;;;;;;4.70;100.00;97783.00;5445017;26;20243;-77
2024/04/20 02:05:41;;;;;;;5.07;2.00;;;;;;;4.68;100.00;97786.63;5443086;26;20693;-79
2024/04/20 02:08:10;;;;;;;6.37;1.90;;;;;;;4.69;100.00;97794.41;5442421;26;20307;-77
2024/04/20 02:10:39;;;;;;;5.57;1.80;;;;;;;4.67;100.00;97785.81;5442287;26;20286;-77
2024/04/20 02:13:07;;;;;;;2.97;1.50;;;;;;;4.69;100.00;97794.41;5442400;26;20344;-77
2024/04/20 02:15:35;;;;;;;3.37;2.03;;;;;;;4.71;100.00;97796.97;5442585;26;20310;-77
2024/04/20 02:18:06;;;;;;;4.27;2.23;;;;;;;4.68;100.00;97787.50;5442519;26;20771;-77
2024/04/20 02:20:34;;;;;;;4.30;1.67;;;;;;;4.72;100.00;97791.66;5442053;26;20379;-77
2024/04/20 02:23:02;;;;;;;5.47;2.20;;;;;;;4.74;100.00;97792.41;5442364;26;20712;-77
2024/04/20 02:25:30;;;;;;;5.00;1.80;;;;;;;4.71;100.00;97799.56;5442655;26;20314;-77
2024/04/20 02:27:58;;;;;;;5.33;2.20;;;;;;;4.72;100.00;97796.03;5442306;26;20678;-77
2024/04/20 02:30:27;;;;;;;5.00;1.80;;;;;;;4.68;100.00;97803.19;5441737;26;20292;-78
2024/04/20 02:32:55;;;;;;;3.43;1.80;;;;;;;4.71;100.00;97807.44;5442286;26;20319;-77
2024/04/20 02:35:26;;;;;;;7.00;2.20;;;;;;;4.73;100.00;97800.34;5442357;26;20682;-78
2024/04/20 02:37:54;;;;;;;5.87;1.80;;;;;;;4.76;100.00;97806.25;5442893;26;20227;-77
2024/04/20 02:40:23;;;;;;;3.40;1.40;;;;;;;4.72;100.00;97804.75;5442316;26;20258;-77
2024/04/20 02:42:51;;;;;;;4.37;1.73;;;;;;;4.67;100.00;97806.75;5442228;26;20361;-77
2024/04/20 02:45:20;;;;;;;5.53;1.83;;;;;;;4.72;100.00;97812.59;5442959;26;20272;-78
2024/04/20 02:47:48;;;;;;;8.17;1.97;;;;;;;4.67;100.00;97814.59;5442306;26;20259;-77
2024/04/20 02:50:16;;;;;;;6.47;1.93;;;;;;;4.64;100.00;97816.53;5441776;26;20684;-77
2024/04/20 02:52:47;;;;;;;5.00;1.80;;;;;;;4.62;100.00;97819.22;5442818;26;20796;-78
2024/04/20 02:55:15;;;;;;;6.63;1.90;;;;;;;4.61;100.00;97822.75;5443966;26;20407;-80
2024/04/20 02:57:44;;;;;;;6.73;2.20;;;;;;;4.60;100.00;97825.44;5442133;26;20222;-77
2024/04/20 03:00:13;;;;;;;3.67;1.60;;;;;;;4.65;100.00;97824.28;5444833;26;20329;-78
2024/04/20 03:02:42;;;;;;;9.73;1.90;;;;;;;4.62;100.00;97829.69;5447338;26;20318;-78
2024/04/20 03:05:10;;;;;;;6.27;1.73;;;;;;;4.58;100.00;97830.75;5446986;26;20284;-78
2024/04/20 03:07:38;;;;;;;5.73;1.70;;;;;;;4.53;100.00;97835.34;5446849;26;20315;-78
2024/04/20 03:10:09;;;;;;;4.50;1.60;;;;;;;4.49;100.00;97827.75;5446523;26;20441;-79
2024/04/20 03:12:37;;;;;;;6.03;2.03;;;;;;;4.40;100.00;97829.03;5444693;26;20330;-79
2024/04/20 03:15:06;;;;;;;2.90;1.53;;;;;;;4.38;100.00;97833.50;5442795;26;20618;-78
2024/04/20 03:17:34;;;;;;;5.50;1.97;;;;;;;4.34;100.00;97831.97;5442969;26;20279;-77
2024/04/20 03:20:02;;;;;;;5.13;1.90;;;;;;;4.27;100.00;97843.66;5441526;26;20692;-77
2024/04/20 03:22:31;;;;;;;7.27;2.30;;;;;;;4.34;100.00;97839.81;5441437;26;20228;-77
2024/04/20 03:24:56;;;;;;;6.13;1.63;;;;;;;4.31;100.00;97845.22;5441397;26;20645;-77
2024/04/20 03:27:27;;;;;;;6.33;2.10;;;;;;;4.39;100.00;97848.28;5441423;26;20231;-77
2024/04/20 03:29:52;;;;;;;4.47;2.13;;;;;;;4.37;100.00;97839.69;5441368;26;20364;-77
2024/04/20 03:32:21;;;;;;;9.90;2.60;;;;;;;4.44;100.00;97854.16;5441641;26;20698;-77
2024/04/20 03:34:51;;;;;;;6.27;1.87;;;;;;;4.48;100.00;97860.94;5441385;26;20273;-77
2024/04/20 03:37:20;;;;;;;3.23;1.70;;;;;;;4.49;100.00;97870.47;5441304;26;20296;-77
2024/04/20 03:39:49;;;;;;;7.63;1.90;;;;;;;4.46;100.00;97875.84;5441179;26;20581;-77
2024/04/20 03:42:17;;;;;;;6.47;2.10;;;;;;;4.45;100.00;97874.16;5441266;26;20223;-77
2024/04/20 03:44:48;;;;;;;6.33;1.90;;;;;;;4.46;100.00;97870.59;5442941;26;20355;-78
2024/04/20 03:47:16;;;;;;;11.50;2.60;;;;;;;4.49;100.00;97875.69;5440157;26;20228;-78
2024/04/20 03:49:45;;;;;;;4.77;1.90;;;;;;;4.54;100.00;97894.66;5441293;26;20360;-77
2024/04/20 03:52:13;;;;;;;5.83;1.90;;;;;;;4.55;100.00;97891.09;5441138;25;20364;-78
2024/04/20 03:54:41;;;;;;;6.33;2.00;;;;;;;4.61;100.00;97895.19;5441840;26;20258;-77
2024/04/20 03:57:09;;;;;;;5.87;1.90;;;;;;;4.58;100.00;97893.56;5441432;26;20298;-77
2024/04/20 03:59:37;;;;;;;5.70;2.27;;;;;;;4.58;100.00;97901.41;5441391;26;20777;-77
2024/04/20 04:02:08;;;;;;;6.83;2.03;;;;;;;4.62;100.00;97902.97;5441039;26;20332;-77
2024/04/20 04:04:36;;;;;;;6.23;2.33;;;;;;;4.61;100.00;97901.28;5441093;26;20466;-77
2024/04/20 04:07:05;;;;;;;4.37;2.20;;;;;;;4.67;100.00;97911.44;5440773;26;20626;-77
2024/04/20 04:09:33;;;;;;;5.77;1.90;;;;;;;4.65;100.00;97908.03;5441071;26;20355;-77
2024/04/20 04:12:01;;;;;;;5.87;1.90;;;;;;;4.69;100.00;97920.06;5440532;26;20283;-77
2024/04/20 04:14:29;;;;;;;6.83;2.50;;;;;;;4.73;100.00;97920.75;5441045;26;20223;-77
2024/04/20 04:16:57;;;;;;;5.47;2.03;;;;;;;4.77;100.00;97920.50;5440816;26;20287;-77
2024/04/20 04:19:28;;;;;;;6.17;2.00;;;;;;;4.70;100.00;97926.97;5440317;26;20301;-77
2024/04/20 04:21:58;;;;;;;5.13;2.07;;;;;;;4.72;100.00;97935.63;5440231;26;20291;-77
2024/04/20 04:24:26;;;;;;;7.37;2.03;;;;;;;4.70;100.00;97931.38;5440921;26;20239;-77
2024/04/20 04:26:53;;;;;;;10.30;2.47;;;;;;;4.82;100.00;97936.84;5440738;26;20227;-77
2024/04/20 04:29:21;;;;;;;5.80;2.00;;;;;;;4.73;100.00;97944.31;5438471;26;20367;-78
2024/04/20 04:31:49;;;;;;;5.70;2.20;;;;;;;4.68;100.00;97949.78;5440167;26;20412;-77
2024/04/20 04:34:17;;;;;;;5.37;2.53;;;;;;;4.70;100.00;97950.53;5440371;26;20784;-77
2024/04/20 04:36:48;;;;;;;7.87;2.50;;;;;;;4.76;100.00;97952.03;5440786;26;20276;-79
2024/04/20 04:39:16;;;;;;;4.07;2.30;;;;;;;4.73;100.00;97957.41;5441443;26;20282;-78
2024/04/20 04:41:45;;;;;;;5.20;2.63;;;;;;;4.67;100.00;97960.31;5440588;26;20337;-79
2024/04/20 04:44:14;;;;;;;8.03;2.70;;;;;;;4.61;100.00;97969.31;5441533;26;21024;-78
2024/04/20 04:46:42;;;;;;;4.47;2.43;;;;;;;4.53;100.00;97981.06;5440520;26;20270;-77
2024/04/20 04:49:10;;;;;;;5.13;2.40;;;;;;;4.47;100.00;97982.19;5440600;26;20285;-77
2024/04/20 04:51:38;;;;;;;5.63;2.00;;;;;;;4.55;100.00;97984.44;5440237;26;20221;-77
2024/04/20 04:54:10;;;;;;;6.20;2.03;;;;;;;4.49;100.00;97988.22;5442957;26;20295;-78
2024/04/20 04:56:38;;;;;;;5.13;2.40;;;;;;;4.40;100.00;97991.25;5442804;26;20224;-78
2024/04/20 04:59:06;;;;;;;3.27;2.07;;;;;;;4.35;100.00;97993.22;5444903;26;20318;-77
2024/04/20 05:01:37;;;;;;;4.83;2.30;;;;;;;4.38;100.00;98003.56;5444086;26;20291;-78
2024/04/20 05:04:05;;;;;;;5.50;2.27;;;;;;;4.42;100.00;98005.13;5444101;26;20229;-78
2024/04/20 05:06:31;;;;;;;6.27;2.30;;;;;;;4.45;100.00;97999.75;5444674;26;20339;-78
2024/04/20 05:08:59;;;;;;;2.57;2.00;;;;;;;4.49;100.00;98011.78;5444986;26;20374;-78
2024/04/20 05:11:30;;;;;;;3.57;1.63;;;;;;;4.58;100.00;98010.50;5440622;26;20372;-77
2024/04/20 05:13:58;;;;;;;4.23;1.77;;;;;;;4.60;100.00;98013.88;5439670;26;20286;-77
2024/04/20 05:16:26;;;;;;;2.33;1.93;;;;;;;4.55;100.00;98005.38;5440064;26;20355;-78
2024/04/20 05:18:55;;;;;;;2.90;1.83;;;;;;;4.43;100.00;98014.69;5439762;26;20256;-78
2024/04/20 05:21:23;;;;;;;3.17;1.90;;;;;;;4.41;100.00;98008.66;5439869;26;20309;-77
2024/04/20 05:23:51;;;;;;;3.63;2.10;;;;;;;4.37;100.00;98007.13;5439669;26;20835;-77
2024/04/20 05:26:23;;;;;;;2.97;1.70;;;;;;;4.41;100.00;98013.88;5440025;26;20351;-78
2024/04/20 05:28:54;;;;;;;3.50;2.10;;;;;;;4.45;100.00;98019.84;5439646;26;20319;-77
2024/04/20 05:31:22;;;;;;;3.63;2.10;;;;;;;4.43;100.00;98017.28;5439973;26;20237;-78
2024/04/20 05:33:50;;;;;;;3.53;2.00;;;;;;;4.49;100.00;98022.25;5447489;26;20357;-78
2024/04/20 05:36:18;;;;;;;3.50;2.00;;;;;;;4.52;100.00;98029.09;5448583;26;20232;-78
2024/04/20 05:38:46;;;;;;;4.37;2.20;;;;;;;4.60;100.00;98040.91;5448308;26;20732;-78
2024/04/20 05:41:15;;;;;;;2.20;1.67;;;;;;;4.65;100.00;98044.13;5447910;26;20243;-78
2024/04/20 05:43:43;;;;;;;9.37;2.73;;;;;;;4.72;100.00;98050.81;5448234;26;20337;-78
2024/04/20 05:46:13;;;;;;;4.97;2.37;;;;;;;4.80;100.00;98053.91;5448445;26;20306;-78
2024/04/20 05:48:42;;;;;;;4.57;1.90;;;;;;;4.83;100.00;98050.28;5448440;26;20694;-78
2024/04/20 05:51:10;;;;;;;3.23;2.10;;;;;;;4.81;100.00;98055.59;5448333;26;20369;-78
2024/04/20 05:53:38;;;;;;;3.00;1.80;;;;;;;4.82;100.00;98064.31;5449522;26;20299;-78
2024/04/20 05:56:06;;;;;;;5.03;1.80;;;;;;;4.86;100.00;98053.59;5448216;26;20365;-78
2024/04/20 05:58:34;;;;;;;3.90;2.00;;;;;;;5.02;100.00;98067.63;5448604;26;20301;-78
2024/04/20 06:01:02;;;;;;;5.03;1.93;;;;;;;5.20;100.00;98066.75;5447831;26;20287;-78
2024/04/20 06:03:33;;;;;;;2.57;1.80;;;;;;;5.51;100.00;98066.91;5448211;26;20371;-78
2024/04/20 06:06:01;;;;;;;3.43;1.70;;;;;;;5.77;100.00;98058.59;5448504;26;20220;-78
2024/04/20 06:08:29;;;;;;;3.73;1.90;;;;;;;5.91;100.00;98060.53;5449278;26;20287;-77
2024/04/20 06:10:58;;;;;;;3.53;1.80;;;;;;;6.03;100.00;98060.75;5450257;26;20295;-79
2024/04/20 06:13:27;;;;;;;5.90;2.27;;;;;;;6.03;100.00;98067.75;5449267;26;20352;-78
2024/04/20 06:15:55;;;;;;;2.13;1.93;;;;;;;5.89;100.00;98060.63;5443392;26;20679;-78
2024/04/20 06:18:24;;;;;;;2.53;1.80;;;;;;;5.76;100.00;98066.53;5442547;26;20280;-76
2024/04/20 06:20:55;;;;;;;3.73;1.70;;;;;;;5.45;100.00;98075.09;5442344;26;20368;-79
2024/04/20 06:23:23;;;;;;;4.43;1.87;;;;;;;5.24;100.00;98078.78;5443128;26;20472;-78
2024/04/20 06:25:51;;;;;;;4.33;1.80;;;;;;;5.16;100.00;98082.69;5447533;26;20323;-78
2024/04/20 06:28:20;;;;;;;2.37;1.93;;;;;;;5.23;100.00;98084.97;5442707;26;20352;-77
2024/04/20 06:30:50;;;;;;;4.70;2.50;;;;;;;5.28;100.00;98096.06;5442022;26;20773;-77
2024/04/20 06:33:19;;;;;;;2.20;1.73;;;;;;;5.37;100.00;98090.34;5445282;26;20220;-78
2024/04/20 06:35:47;;;;;;;4.70;2.00;;;;;;;5.43;100.00;98094.47;5443298;26;20730;-77
2024/04/20 06:38:17;;;;;;;3.57;2.33;;;;;;;5.61;100.00;98099.63;5442683;26;20333;-77
2024/04/20 06:40:47;;;;;;;2.40;2.03;;;;;;;5.73;100.00;98099.00;5442850;26;20234;-76
2024/04/20 06:43:15;;;;;;;5.03;2.40;;;;;;;5.80;100.00;98094.34;5441712;26;20660;-78
2024/04/20 06:45:43;;;;;;;2.80;2.00;;;;;;;6.01;100.00;98101.09;5442213;26;20268;-77
2024/04/20 06:48:12;;;;;;;3.63;2.40;;;;;;;6.04;100.00;98086.06;5442840;26;20263;-77
2024/04/20 06:50:40;;;;;;;2.57;2.17;;;;;;;6.11;100.00;98087.44;5442237;26;20291;-77
2024/04/20 06:53:09;;;;;;;2.70;2.30;;;;;;;6.09;100.00;98091.06;5441951;26;20342;-77
2024/04/20 06:55:39;;;;;;;2.10;1.90;;;;;;;6.18;100.00;98083.56;5438053;26;20395;-77
2024/04/20 06:58:08;;;;;;;3.53;2.10;;;;;;;6.30;100.00;98090.78;5442274;26;20574;-78
2024/04/20 07:00:36;;;;;;;2.17;1.80;;;;;;;6.38;100.00;98096.50;5444130;26;20252;-78
2024/04/20 07:03:05;;;;;;;2.63;1.63;;;;;;;6.49;100.00;98083.66;5446007;26;20347;-81
2024/04/20 07:05:33;;;;;;;4.00;1.80;;;;;;;6.78;100.00;98092.56;5445270;26;20267;-77
2024/04/20 07:08:02;;;;;;;2.17;1.73;;;;;;;6.94;100.00;98080.28;5450175;26;20280;-79
2024/04/20 07:10:31;;;;;;;2.50;1.70;;;;;;;6.88;100.00;98065.72;5447883;26;20348;-79
2024/04/20 07:13:02;;;;;;;2.40;1.60;;;;;;;6.72;100.00;98085.84;5448353;26;20719;-79
2024/04/20 07:15:30;;;;;;;2.00;1.80;;;;;;;6.72;100.00;98090.28;5419763;26;20805;-79
2024/04/20 07:17:58;;;;;;;2.90;1.53;;;;;;;6.66;100.00;98094.06;5415630;26;20324;-80
2024/04/20 07:20:26;;;;;;;4.57;1.93;;;;;;;6.78;100.00;98117.03;5415649;26;20286;-79
2024/04/20 07:22:54;;;;;;;3.00;1.97;;;;;;;6.83;100.00;98115.00;5413190;26;20269;-78
2024/04/20 07:25:22;;;;;;;5.67;2.30;;;;;;;6.80;100.00;98127.47;5415157;26;20335;-79
2024/04/20 07:27:50;;;;;;;3.40;2.27;;;;;;;6.73;100.00;98128.75;5416657;26;20326;-79
2024/04/20 07:30:22;;;;;;;3.70;2.50;;;;;;;6.62;100.00;98121.44;5415128;26;20253;-78
2024/04/20 07:32:50;;;;;;;3.80;2.23;;;;;;;6.74;100.00;98141.78;5414858;26;20939;-79
2024/04/20 07:35:18;;;;;;;5.60;2.43;;;;;;;6.71;100.00;98139.31;5415766;26;20289;-80
2024/04/20 07:37:47;;;;;;;7.17;2.70;;;;;;;6.78;100.00;98148.56;5416717;26;20237;-80
2024/04/20 07:40:15;;;;;;;4.10;2.73;;;;;;;7.02;100.00;98154.28;5416592;26;20298;-79
2024/04/20 07:42:43;;;;;;;6.70;2.70;;;;;;;7.23;99.57;98125.88;5410051;26;20796;-78
2024/04/20 07:45:11;;;;;;;3.13;2.37;;;;;;;7.37;96.14;98111.94;5415937;26;20241;-80
2024/04/20 07:47:42;;;;;;;3.87;2.20;;;;;;;7.54;96.16;98120.56;5417996;26;20298;-79
2024/04/20 07:50:12;;;;;;;5.90;2.83;;;;;;;7.65;97.00;98130.50;5417866;26;20297;-80
2024/04/20 07:52:40;;;;;;;3.60;2.47;;;;;;;7.69;93.77;98116.19;5452962;26;20270;-79
2024/04/20 07:55:09;;;;;;;5.93;2.57;;;;;;;7.63;93.21;98114.78;5449538;26;20327;-79
2024/04/20 07:57:37;;;;;;;5.43;2.40;;;;;;;7.56;92.62;98117.84;5449247;26;20697;-80
2024/04/20 08:00:06;;;;;;;4.50;3.03;;;;;;;7.35;95.22;98143.56;5450890;26;20326;-79
2024/04/20 08:02:34;;;;;;;3.03;2.13;;;;;;;7.36;94.38;98141.81;5452709;26;20929;-79
2024/04/20 08:05:06;;;;;;;3.87;2.77;;;;;;;7.25;91.71;98128.41;5452146;26;20230;-79
2024/04/20 08:07:34;;;;;;;5.30;2.67;;;;;;;7.33;92.91;98140.19;5448557;26;20276;-80
2024/04/20 08:10:03;;;;;;;4.53;2.40;;;;;;;7.38;89.09;98109.25;5450161;26;20375;-79
2024/04/20 08:12:31;;;;;;;4.27;2.40;;;;;;;7.72;90.49;98135.28;5451548;26;20241;-79
2024/04/20 08:15:00;;;;;;;2.57;2.10;;;;;;;7.93;88.44;98128.78;5449745;26;20225;-80
2024/04/20 08:17:29;;;;;;;2.87;2.30;;;;;;;8.05;88.98;98137.75;5446548;26;20226;-79
2024/04/20 08:19:57;;;;;;;4.53;2.20;;;;;;;7.89;83.70;98105.38;5448652;26;20288;-79
2024/04/20 08:22:29;;;;;;;3.13;2.70;;;;;;;7.96;83.47;98122.50;5440108;26;20350;-78
2024/04/20 08:24:57;;;;;;;4.83;2.03;;;;;;;7.89;80.54;98115.91;5444508;26;20359;-78
2024/04/20 08:27:25;;;;;;;4.60;2.30;;;;;;;7.86;80.04;98121.34;5446307;26;20281;-78
2024/04/20 08:29:53;;;;;;;3.80;2.20;;;;;;;7.80;80.95;98137.47;5439202;26;20234;-78
2024/04/20 08:32:22;;;;;;;6.37;2.10;;;;;;;7.87;80.33;98138.81;5439943;26;20953;-76
2024/04/20 08:34:51;;;;;;;3.07;2.27;;;;;;;7.84;81.12;98144.28;5439778;26;20665;-78
2024/04/20 08:37:19;;;;;;;5.27;2.27;;;;;;;7.73;81.48;98158.03;5439552;25;20227;-77
2024/04/20 08:39:50;;;;;;;4.07;2.03;;;;;;;7.77;82.99;98159.56;5442676;26;20231;-79
2024/04/20 08:42:25;;;;;;;3.53;2.17;;;;;;;7.85;82.50;98167.84;5444745;26;20255;-79
2024/04/20 08:44:56;;;;;;;2.40;2.20;;;;;;;7.68;83.94;98182.91;5439893;26;20330;-79
2024/04/20 08:47:25;;;;;;;3.37;2.50;;;;;;;7.55;86.60;98200.31;5448680;26;20288;-78
2024/04/20 08:49:53;;;;;;;4.17;2.70;;;;;;;7.50;87.23;98207.59;5445375;26;20238;-78
2024/04/20 08:52:22;;;;;;;4.13;2.70;;;;;;;7.55;88.21;98216.09;5410340;25;20296;-79
2024/04/20 08:54:56;;;;;;;3.83;3.13;;;;;;;7.67;90.64;98226.78;5411196;26;20299;-78
2024/04/20 08:57:25;;;;;;;3.20;2.77;;;;;;;7.61;85.20;98195.56;5410267;26;20715;-79
2024/04/20 08:59:54;;;;;;;5.10;2.77;;;;;;;7.55;85.64;98205.56;5410961;26;20374;-78
2024/04/20 09:02:26;;;;;;;3.90;2.87;;;;;;;7.70;84.99;98204.69;5406664;26;20232;-79
2024/04/20 09:04:57;;;;;;;2.70;2.50;;;;;;;7.80;85.13;98206.75;5408744;26;20241;-79
2024/04/20 09:07:26;;;;;;;3.90;2.60;;;;;;;8.01;84.39;98202.00;5410569;26;20317;-79
2024/04/20 09:09:57;;;;;;;3.23;2.40;;;;;;;8.07;77.10;98164.81;5406014;26;20242;-78
2024/04/20 09:12:25;;;;;;;2.20;2.00;;;;;;;8.03;70.94;98142.25;5403160;26;20241;-77
2024/04/20 09:14:57;;;;;;;3.53;2.30;;;;;;;7.76;77.21;98180.69;5403113;26;20353;-77
2024/04/20 09:17:25;;;;;;;4.20;2.30;;;;;;;7.65;77.99;98191.81;5401990;26;20349;-77
2024/04/20 09:19:57;;;;;;;4.47;2.47;;;;;;;7.52;77.05;98201.34;5402557;26;20363;-77
2024/04/20 09:22:26;;;;;;;3.43;2.10;;;;;;;7.55;78.51;98211.69;5403473;26;20230;-78
2024/04/20 09:25:05;;;;;;;5.73;2.67;;;;;;;7.66;78.45;98211.09;5402663;26;20227;-78
2024/04/20 09:27:33;;;;;;;3.63;2.60;;;;;;;7.70;79.13;98226.59;5402133;26;20230;-76
2024/04/20 09:30:03;;;;;;;6.07;2.30;;;;;;;8.18;76.13;98207.16;5408002;26;20326;-78
2024/04/20 09:32:34;;;;;;;2.67;2.13;;;;;;;8.42;72.76;98182.91;5404358;26;20226;-77
2024/04/20 09:35:02;;;;;;;4.13;2.13;;;;;;;8.46;70.78;98171.22;5401777;26;20269;-76
2024/04/20 09:37:31;;;;;;;3.30;2.13;;;;;;;8.54;70.99;98183.94;5402460;26;20239;-76
2024/04/20 09:39:59;;;;;;;3.17;2.20;;;;;;;8.54;73.62;98205.00;5400724;26;20280;-77
2024/04/20 09:42:31;;;;;;;4.13;2.40;;;;;;;8.27;73.59;98209.28;5401898;26;20279;-77
2024/04/20 09:45:04;;;;;;;2.97;2.40;;;;;;;8.23;75.27;98226.19;5401298;26;20829;-77
2024/04/20 09:47:36;;;;;;;6.37;2.77;;;;;;;7.97;75.05;98209.22;5403148;26;20610;-77
2024/04/20 09:50:10;;;;;;;3.33;2.50;;;;;;;7.87;76.19;98229.13;5401881;26;20253;-77
2024/04/20 09:52:48;;;;;;;3.80;2.60;;;;;;;7.90;75.42;98218.41;5438374;26;20230;-77
2024/04/20 09:55:23;;;;;;;3.50;2.60;;;;;;;8.15;78.06;98234.50;5449614;26;20291;-79
2024/04/20 09:57:55;;;;;;;3.70;2.50;;;;;;;8.43;77.57;98233.78;5453329;26;20278;-80
2024/04/20 10:00:24;;;;;;;3.57;2.27;;;;;;;8.53;72.54;98198.06;5451521;26;20249;-80
2024/04/20 10:02:53;;;;;;;1.77;1.67;;;;;;;8.94;67.90;98156.84;5441015;26;20224;-78
2024/04/20 10:05:22;;;;;;;1.80;1.57;;;;;;;9.21;63.94;98124.31;5440473;26;20650;-78
2024/04/20 10:07:52;;;;;;;3.43;1.83;;;;;;;9.18;61.40;98131.59;5439716;26;20279;-77
2024/04/20 10:10:22;;;;;;;1.87;1.47;;;;;;;9.26;59.69;98129.31;5438545;26;20298;-77
2024/04/20 10:12:51;;;;;;;2.27;1.30;;;;;;;9.25;60.08;98146.91;5442242;26;20223;-79
2024/04/20 10:15:22;;;;;;;1.50;1.40;;;;;;;9.18;59.53;98155.31;5441501;26;20310;-78
2024/04/20 10:17:50;;;;;;;1.83;1.50;;;;;;;9.06;60.60;98158.72;5443148;26;20238;-78
2024/04/20 10:20:18;;;;;;;2.07;1.63;;;;;;;9.03;62.69;98190.53;5445525;26;20371;-78
2024/04/20 10:22:46;;;;;;;3.27;2.20;;;;;;;8.96;68.57;98237.53;5445921;26;20678;-78
2024/04/20 10:25:14;;;;;;;3.83;2.60;;;;;;;8.83;71.18;98247.13;5445099;26;20275;-77
2024/04/20 10:27:43;;;;;;;3.33;2.20;;;;;;;8.91;71.59;98251.91;5445079;26;20671;-78
2024/04/20 10:30:12;;;;;;;2.07;1.87;;;;;;;8.81;65.09;98196.28;5447887;26;20231;-78
2024/04/20 10:32:43;;;;;;;2.33;2.13;;;;;;;8.78;68.26;98224.63;5447765;26;20219;-78
2024/04/20 10:35:11;;;;;;;2.20;2.00;;;;;;;8.85;66.53;98210.13;5445716;26;20299;-78
2024/04/20 10:37:39;;;;;;;2.47;1.90;;;;;;;8.95;64.52;98190.19;5445451;26;20653;-80
2024/04/20 10:40:13;;;;;;;3.17;2.13;;;;;;;9.06;62.47;98180.66;5448336;26;20342;-79
2024/04/20 10:42:42;;;;;;;3.57;2.17;;;;;;;9.08;64.57;98194.59;5451813;26;20220;-80
2024/04/20 10:45:14;;;;;;;1.67;1.57;;;;;;;9.28;65.87;98214.44;5449189;26;20227;-80
2024/04/20 10:47:48;;;;;;;2.50;1.67;;;;;;;9.37;63.66;98198.88;5451385;26;20227;-80
2024/04/20 10:50:18;;;;;;;1.83;1.70;;;;;;;9.32;63.61;98205.41;5447763;26;20306;-84
2024/04/20 10:52:47;;;;;;;2.43;1.80;;;;;;;9.32;62.65;98194.84;5446575;26;20615;-83
2024/04/20 10:55:15;;;;;;;6.60;1.80;;;;;;;9.34;61.69;98192.94;5448986;26;20704;-83
2024/04/20 10:57:44;;;;;;;2.70;1.60;;;;;;;9.42;62.37;98195.97;5450207;26;20223;-82
2024/04/20 11:00:20;;;;;;;2.90;1.60;;;;;;;9.60;62.96;98214.09;5450371;26;20287;-79
2024/04/20 11:02:54;;;;;;;2.00;1.43;;;;;;;9.40;59.98;98176.72;5456470;26;20262;-79
2024/04/20 11:05:24;;;;;;;2.90;2.00;;;;;;;9.30;60.14;98189.66;5458513;26;20257;-80
2024/04/20 11:08:00;;;;;;;1.70;1.60;;;;;;;9.28;62.14;98225.84;5456388;26;20222;-79
2024/04/20 11:10:28;;;;;;;6.50;2.30;;;;;;;9.08;63.67;98228.88;5458096;26;20328;-79
2024/04/20 11:13:02;;;;;;;3.87;2.03;;;;;;;9.05;64.56;98238.75;5456538;26;20544;-79
2024/04/20 11:15:31;;;;;;;4.57;2.20;;;;;;;8.91;66.15;98257.19;5455515;26;20226;-79
2024/04/20 11:18:02;;;;;;;3.13;2.03;;;;;;;8.95;67.88;98270.13;5455285;26;20707;-79
2024/04/20 11:20:30;;;;;;;2.53;2.13;;;;;;;8.98;66.75;98269.06;5454937;26;20345;-79
2024/04/20 11:23:02;;;;;;;2.37;1.90;;;;;;;8.96;64.90;98249.84;5453902;26;20272;-80
2024/04/20 11:25:30;;;;;;;2.17;1.70;;;;;;;9.18;65.04;98250.25;5455536;26;20224;-80
2024/04/20 11:27:59;;;;;;;3.30;2.03;;;;;;;9.45;64.69;98259.06;5456140;26;20395;-80
2024/04/20 11:30:28;;;;;;;3.23;2.27;;;;;;;9.60;64.16;98248.41;5454136;26;20325;-80
2024/04/20 11:33:02;;;;;;;1.97;1.80;;;;;;;9.74;63.84;98255.44;5454690;26;20557;-80
2024/04/20 11:35:30;;;;;;;2.93;1.80;;;;;;;9.94;67.63;98284.03;5453433;26;20315;-80
2024/04/20 11:38:05;;;;;;;2.37;2.10;;;;;;;9.99;64.77;98261.69;5455007;26;20274;-79
2024/04/20 11:40:33;;;;;;;1.97;1.73;;;;;;;10.01;61.56;98227.25;5455388;26;20253;-79
2024/04/20 11:43:02;;;;;;;2.33;1.80;;;;;;;9.82;61.25;98221.47;5456225;26;20243;-82
2024/04/20 11:45:31;;;;;;;3.37;1.70;;;;;;;9.94;62.13;98236.53;5459592;26;20211;-80